Time;durP1;ratioP1;P1;durP2;ratioP2;P2;SDS_P1;SDS_P2;PMS_P1;PMS_P2;Temp;Humidity;BMP_temperature;BMP_pressure;BME280_temperature;BME280_humidity;BME280_pressure;Samples;Min_cycle;Max_cycle;Signal;HPM_P1;HPM_P2
2023/07/21 00:00:29;;;;;;;5.07;3.42;;;;;;;14.36;100.00;101286.78;5024041;28;20032;-77
2023/07/21 00:03:15;;;;;;;4.90;3.35;;;;;;;14.30;100.00;101295.97;5038549;28;20039;-77
2023/07/21 00:06:06;;;;;;;5.90;3.42;;;;;;;14.23;100.00;101292.78;5037471;28;20033;-78
2023/07/21 00:08:53;;;;;;;4.65;3.42;;;;;;;14.18;100.00;101283.31;5022146;28;20056;-77
2023/07/21 00:11:39;;;;;;;5.85;3.65;;;;;;;14.11;100.00;101288.13;5038340;28;20044;-77
2023/07/21 00:14:25;;;;;;;3.78;3.17;;;;;;;14.07;100.00;101286.56;5039195;28;20045;-78
2023/07/21 00:17:11;;;;;;;5.00;3.40;;;;;;;13.99;100.00;101290.50;5023461;28;20060;-77
2023/07/21 00:20:03;;;;;;;4.38;3.33;;;;;;;13.92;100.00;101294.44;5022632;28;20196;-78
2023/07/21 00:22:52;;;;;;;4.45;3.35;;;;;;;13.86;100.00;101286.75;5008473;28;20037;-79
2023/07/21 00:25:38;;;;;;;5.32;3.63;;;;;;;13.83;100.00;101292.22;5023738;28;20037;-79
2023/07/21 00:28:25;;;;;;;6.47;3.50;;;;;;;13.79;100.00;101290.69;5027995;28;20049;-79
2023/07/21 00:31:11;;;;;;;4.75;3.78;;;;;;;13.74;100.00;101292.72;5037657;28;20561;-78
2023/07/21 00:33:57;;;;;;;5.90;3.70;;;;;;;13.69;100.00;101292.97;5041175;28;20163;-79
2023/07/21 00:36:45;;;;;;;4.32;3.17;;;;;;;13.65;100.00;101289.59;5055312;28;20045;-78
2023/07/21 00:39:31;;;;;;;5.68;3.40;;;;;;;13.61;100.00;101285.34;5024749;28;20095;-78
2023/07/21 00:42:17;;;;;;;5.88;3.88;;;;;;;13.57;100.00;101278.50;5027509;28;20539;-77
2023/07/21 00:45:03;;;;;;;7.03;3.35;;;;;;;13.54;100.00;101278.63;5042599;28;20055;-78
2023/07/21 00:47:50;;;;;;;6.88;3.70;;;;;;;13.52;100.00;101275.19;5041922;28;20040;-77
2023/07/21 00:50:42;;;;;;;5.70;3.85;;;;;;;13.50;100.00;101271.78;5041346;28;20033;-77
2023/07/21 00:53:28;;;;;;;4.65;3.33;;;;;;;13.49;100.00;101275.34;5040388;28;20028;-77
2023/07/21 00:56:13;;;;;;;5.70;3.60;;;;;;;13.48;100.00;101278.94;5031633;28;20048;-77
2023/07/21 00:59:00;;;;;;;5.47;3.88;;;;;;;13.43;100.00;101277.38;5041280;28;20041;-77
2023/07/21 01:01:46;;;;;;;4.45;3.47;;;;;;;13.42;100.00;101272.97;5031002;28;21255;-79
2023/07/21 01:04:32;;;;;;;5.07;3.40;;;;;;;13.40;100.00;101277.50;5041302;28;20496;-78
2023/07/21 01:07:18;;;;;;;5.63;3.70;;;;;;;13.39;100.00;101265.16;5030188;28;20070;-79
2023/07/21 01:10:04;;;;;;;7.70;4.00;;;;;;;13.39;100.00;101274.91;5026998;28;20036;-79
2023/07/21 01:12:50;;;;;;;5.43;3.90;;;;;;;13.37;100.00;101269.69;5042142;28;20488;-78
2023/07/21 01:15:42;;;;;;;4.70;3.55;;;;;;;13.37;100.00;101267.03;5025992;28;20268;-79
2023/07/21 01:18:28;;;;;;;6.18;3.88;;;;;;;13.36;100.00;101259.13;5043395;28;20056;-79
2023/07/21 01:21:34;;;;;;;6.80;4.10;;;;;;;13.31;100.00;101256.72;5032631;28;20052;-79
2023/07/21 01:24:27;;;;;;;6.97;3.65;;;;;;;13.29;100.00;101258.59;5027979;28;20039;-78
2023/07/21 01:27:13;;;;;;;;;;;;;;;13.26;100.00;101248.09;5015263;28;20150;-78
2023/07/21 01:30:02;;;;;;;4.85;3.75;;;;;;;13.23;100.00;101248.25;5026064;28;19925;-78
2023/07/21 01:32:50;;;;;;;6.97;3.70;;;;;;;13.20;100.00;101243.97;5040212;28;20041;-78
2023/07/21 01:35:36;;;;;;;4.22;3.13;;;;;;;13.16;100.00;101231.75;5040209;28;20037;-78
2023/07/21 01:38:23;;;;;;;5.22;3.72;;;;;;;13.13;100.00;101227.44;5023873;28;20041;-78
2023/07/21 01:41:12;;;;;;;4.35;3.45;;;;;;;13.11;100.00;101233.75;5026232;28;20649;-78
2023/07/21 01:43:58;;;;;;;5.25;3.67;;;;;;;13.06;100.00;101231.34;5025272;28;20357;-79
2023/07/21 01:46:44;;;;;;;7.88;4.35;;;;;;;13.02;100.00;101225.31;5041129;28;20586;-78
2023/07/21 01:49:32;;;;;;;5.63;3.65;;;;;;;13.00;100.00;101221.00;5041353;28;20045;-78
2023/07/21 01:52:18;;;;;;;6.68;3.47;;;;;;;12.99;100.00;101219.28;5041031;28;20155;-79
2023/07/21 01:55:31;;;;;;;4.35;3.63;;;;;;;12.98;100.00;101213.13;5024442;28;20484;-78
2023/07/21 01:58:18;;;;;;;5.20;3.40;;;;;;;12.98;100.00;101217.59;5025646;28;20044;-78
2023/07/21 02:01:05;;;;;;;5.22;3.45;;;;;;;12.96;100.00;101208.84;5025791;28;20043;-78
2023/07/21 02:03:52;;;;;;;4.57;3.22;;;;;;;12.93;100.00;101206.31;5015082;28;20040;-78
2023/07/21 02:06:37;;;;;;;6.30;3.20;;;;;;;12.90;100.00;101208.19;5041900;28;20075;-79
2023/07/21 02:09:24;;;;;;;5.38;3.35;;;;;;;12.89;100.00;101203.81;5024469;28;20124;-78
2023/07/21 02:12:11;;;;;;;7.63;3.65;;;;;;;12.88;100.00;101198.56;5025892;28;20041;-78
2023/07/21 02:14:56;;;;;;;5.78;3.28;;;;;;;12.87;100.00;101203.00;5015455;28;20037;-78
2023/07/21 02:17:42;;;;;;;6.07;3.53;;;;;;;12.87;100.00;101199.50;5025147;28;20570;-78
2023/07/21 02:20:28;;;;;;;4.78;3.35;;;;;;;12.86;100.00;101201.31;5041413;28;20064;-78
2023/07/21 02:23:14;;;;;;;6.22;3.40;;;;;;;12.85;100.00;101196.94;5040170;28;20548;-78
2023/07/21 02:26:00;;;;;;;4.97;3.40;;;;;;;12.83;100.00;101188.19;5016302;28;21532;-78
2023/07/21 02:28:45;;;;;;;6.75;3.90;;;;;;;12.83;100.00;101196.16;5039641;28;20037;-78
2023/07/21 02:31:31;;;;;;;5.15;4.10;;;;;;;12.82;100.00;101191.78;5039578;28;20138;-78
2023/07/21 02:34:17;;;;;;;6.68;3.78;;;;;;;12.81;100.00;101184.72;5012284;28;20036;-78
2023/07/21 02:37:03;;;;;;;6.20;3.80;;;;;;;12.80;100.00;101193.63;5039257;28;20048;-78
2023/07/21 02:39:49;;;;;;;11.68;4.63;;;;;;;12.77;100.00;101191.97;5024360;28;20495;-78
2023/07/21 02:42:35;;;;;;;6.22;4.00;;;;;;;12.80;100.00;101185.66;5023815;28;20053;-78
2023/07/21 02:45:20;;;;;;;7.10;3.95;;;;;;;12.83;100.00;101174.91;5040106;28;20070;-78
2023/07/21 02:48:08;;;;;;;5.15;3.63;;;;;;;12.85;100.00;101170.34;5039826;28;20094;-78
2023/07/21 02:50:58;;;;;;;6.35;4.30;;;;;;;12.88;100.00;101174.66;5040653;28;20143;-78
2023/07/21 02:53:44;;;;;;;5.72;3.85;;;;;;;12.87;100.00;101181.75;5038768;28;20120;-78
2023/07/21 02:56:30;;;;;;;5.90;4.15;;;;;;;12.86;100.00;101177.38;5041136;28;20754;-78
2023/07/21 02:59:16;;;;;;;5.55;3.70;;;;;;;12.86;100.00;101172.06;5040170;28;20075;-78
2023/07/21 03:02:02;;;;;;;7.15;4.18;;;;;;;12.87;100.00;101157.84;5012267;28;20041;-79
2023/07/21 03:04:47;;;;;;;5.85;4.10;;;;;;;12.90;100.00;101160.38;5025531;28;20984;-79
2023/07/21 03:07:33;;;;;;;5.72;3.92;;;;;;;12.92;100.00;101170.06;5039924;28;20048;-79
2023/07/21 03:10:19;;;;;;;8.27;4.00;;;;;;;12.92;100.00;101162.06;5023477;28;20406;-79
2023/07/21 03:13:05;;;;;;;5.80;3.90;;;;;;;12.92;100.00;101160.28;5040004;28;20048;-78
2023/07/21 03:15:52;;;;;;;7.80;3.47;;;;;;;12.94;100.00;101166.38;5036787;28;20040;-79
2023/07/21 03:18:37;;;;;;;7.07;4.07;;;;;;;12.94;100.00;101158.41;5039992;28;20096;-79
2023/07/21 03:21:23;;;;;;;5.60;3.97;;;;;;;12.92;100.00;101162.06;5027674;28;20044;-78
2023/07/21 03:24:09;;;;;;;5.28;3.40;;;;;;;12.89;100.00;101161.31;5038975;28;20039;-78
2023/07/21 03:26:55;;;;;;;4.78;3.33;;;;;;;12.87;100.00;101165.81;5040173;28;20563;-78
2023/07/21 03:29:42;;;;;;;5.45;3.75;;;;;;;12.85;100.00;101159.72;5023959;28;20040;-79
2023/07/21 03:32:28;;;;;;;9.52;3.75;;;;;;;12.85;100.00;101153.56;5039764;28;20462;-78
2023/07/21 03:35:14;;;;;;;5.78;3.55;;;;;;;12.83;100.00;101152.75;5025454;28;22176;-78
2023/07/21 03:38:00;;;;;;;5.78;3.75;;;;;;;12.81;100.00;101158.16;5023956;28;20040;-79
2023/07/21 03:40:46;;;;;;;6.22;3.78;;;;;;;12.78;100.00;101160.97;5038907;28;20089;-79
2023/07/21 03:43:32;;;;;;;6.38;3.97;;;;;;;12.77;100.00;101156.59;5046022;28;20121;-80
2023/07/21 03:46:18;;;;;;;6.28;4.25;;;;;;;12.79;100.00;101159.19;5020675;28;21087;-79
2023/07/21 03:49:04;;;;;;;9.85;4.57;;;;;;;12.77;100.00;101157.44;5019715;28;20065;-79
2023/07/21 03:51:49;;;;;;;7.30;4.22;;;;;;;12.79;100.00;101151.22;5018881;28;20483;-79
2023/07/21 03:54:35;;;;;;;7.25;4.60;;;;;;;12.80;100.00;101150.28;5020785;28;20396;-78
2023/07/21 03:57:21;;;;;;;7.93;5.00;;;;;;;12.84;100.00;101142.06;5018662;28;20050;-79
2023/07/21 04:00:08;;;;;;;7.18;4.90;;;;;;;12.87;100.00;101141.91;5018305;28;20033;-79
2023/07/21 04:02:53;;;;;;;7.50;4.68;;;;;;;12.85;100.00;101146.44;5018918;28;20318;-79
2023/07/21 04:05:39;;;;;;;8.57;5.10;;;;;;;12.84;100.00;101147.38;5019871;28;20458;-79
2023/07/21 04:08:25;;;;;;;8.57;4.47;;;;;;;12.83;100.00;101140.34;5017002;28;20045;-79
2023/07/21 04:11:11;;;;;;;7.38;4.75;;;;;;;12.83;100.00;101145.66;5017444;28;20037;-78
2023/07/21 04:13:59;;;;;;;6.78;4.07;;;;;;;12.86;100.00;101147.31;5018188;28;20115;-78
2023/07/21 04:16:45;;;;;;;6.25;4.20;;;;;;;12.88;100.00;101153.41;5018138;28;20044;-78
2023/07/21 04:19:31;;;;;;;7.63;4.40;;;;;;;12.88;100.00;101154.28;5022822;28;20430;-80
2023/07/21 04:22:16;;;;;;;6.25;4.18;;;;;;;12.90;100.00;101147.06;5021002;28;20063;-79
2023/07/21 04:25:02;;;;;;;7.18;4.20;;;;;;;12.93;100.00;101147.84;5018434;28;20045;-79
2023/07/21 04:27:50;;;;;;;6.55;3.90;;;;;;;12.96;100.00;101145.91;5017483;28;20049;-79
2023/07/21 04:30:36;;;;;;;6.70;4.20;;;;;;;13.01;100.00;101143.00;5018643;28;20042;-79
2023/07/21 04:33:22;;;;;;;5.95;3.95;;;;;;;13.06;100.00;101145.44;5031038;28;20129;-79
2023/07/21 04:36:07;;;;;;;7.45;4.30;;;;;;;13.11;100.00;101146.91;5018905;28;20159;-79
2023/07/21 04:38:53;;;;;;;5.90;3.80;;;;;;;13.12;100.00;101145.97;5021221;28;20116;-78
2023/07/21 04:41:39;;;;;;;7.57;4.15;;;;;;;13.14;100.00;101154.72;5019327;28;20128;-79
2023/07/21 04:44:25;;;;;;;6.03;3.45;;;;;;;13.16;100.00;101149.34;5024625;28;20102;-79
2023/07/21 04:47:10;;;;;;;6.10;3.78;;;;;;;13.18;100.00;101143.00;5039376;28;20041;-79
2023/07/21 04:49:57;;;;;;;7.05;4.03;;;;;;;13.22;100.00;101145.50;5024355;28;20526;-79
2023/07/21 04:52:42;;;;;;;6.47;3.90;;;;;;;13.24;100.00;101152.44;5039111;28;21053;-79
2023/07/21 04:55:28;;;;;;;6.78;4.07;;;;;;;13.26;100.00;101136.44;5013123;28;20916;-79
2023/07/21 04:58:14;;;;;;;5.43;4.05;;;;;;;13.28;100.00;101147.84;5028997;28;20036;-79
2023/07/21 05:01:02;;;;;;;6.95;3.88;;;;;;;13.29;100.00;101139.78;5042629;28;20044;-78
2023/07/21 05:03:48;;;;;;;5.93;3.70;;;;;;;13.35;100.00;101135.94;5040127;28;20419;-77
2023/07/21 05:06:34;;;;;;;6.95;3.53;;;;;;;13.42;100.00;101133.81;5040310;28;20041;-77
2023/07/21 05:09:20;;;;;;;6.22;3.83;;;;;;;13.48;100.00;101135.31;5023839;28;20052;-77
2023/07/21 05:12:06;;;;;;;8.32;4.13;;;;;;;13.56;100.00;101139.31;5054568;28;20127;-77
2023/07/21 05:14:57;;;;;;;8.90;3.92;;;;;;;13.62;100.00;101131.94;5028398;28;20454;-78
2023/07/21 05:17:45;;;;;;;5.55;3.70;;;;;;;13.67;100.00;101128.06;5043732;28;21159;-78
2023/07/21 05:20:30;;;;;;;6.38;4.05;;;;;;;13.74;100.00;101138.38;5027979;28;20037;-78
2023/07/21 05:23:19;;;;;;;5.63;3.42;;;;;;;13.79;100.00;101131.88;5043294;28;20056;-78
2023/07/21 05:26:05;;;;;;;6.40;3.75;;;;;;;13.88;100.00;101135.84;5026797;28;20040;-78
2023/07/21 05:28:58;;;;;;;6.60;3.83;;;;;;;13.95;100.00;101139.03;5030072;28;20043;-78
2023/07/21 05:31:47;;;;;;;6.22;4.50;;;;;;;14.04;100.00;101134.97;5055583;28;20079;-78
2023/07/21 05:34:33;;;;;;;6.85;3.97;;;;;;;14.12;100.00;101143.41;5043200;28;20051;-78
2023/07/21 05:37:23;;;;;;;7.65;4.13;;;;;;;14.20;100.00;101132.31;5043336;28;20036;-78
2023/07/21 05:40:10;;;;;;;7.70;3.97;;;;;;;14.29;100.00;101128.28;5042911;28;20457;-78
2023/07/21 05:42:56;;;;;;;6.85;4.22;;;;;;;14.35;100.00;101123.50;5024787;28;20056;-78
2023/07/21 05:45:42;;;;;;;5.05;3.72;;;;;;;14.46;100.00;101133.53;5048398;28;20967;-78
2023/07/21 05:48:28;;;;;;;5.85;3.88;;;;;;;14.56;100.00;101130.31;5023566;28;20033;-78
2023/07/21 05:51:14;;;;;;;6.25;3.92;;;;;;;14.64;100.00;101125.41;5022529;28;20037;-78
2023/07/21 05:54:03;;;;;;;7.43;4.45;;;;;;;14.80;100.00;101120.06;5020474;28;20404;-78
2023/07/21 05:56:54;;;;;;;8.23;4.32;;;;;;;14.96;100.00;101119.16;5022408;28;20037;-78
2023/07/21 05:59:42;;;;;;;8.07;4.22;;;;;;;15.10;100.00;101123.66;5023095;28;20080;-78
2023/07/21 06:02:28;;;;;;;5.80;4.22;;;;;;;15.30;100.00;101123.31;5021260;28;20045;-78
2023/07/21 06:05:14;;;;;;;6.68;4.22;;;;;;;15.52;100.00;101127.31;5021817;28;20069;-78
2023/07/21 06:08:00;;;;;;;6.63;4.00;;;;;;;15.74;100.00;101115.28;5022700;28;20098;-76
2023/07/21 06:10:46;;;;;;;5.78;3.63;;;;;;;15.97;100.00;101119.22;5020676;28;20128;-76
2023/07/21 06:13:31;;;;;;;5.82;3.83;;;;;;;16.22;100.00;101114.09;5020371;28;20042;-76
2023/07/21 06:16:17;;;;;;;6.18;3.42;;;;;;;16.47;100.00;101117.84;5021494;28;20077;-76
2023/07/21 06:19:03;;;;;;;4.90;3.22;;;;;;;16.69;100.00;101107.41;5019667;28;20037;-76
2023/07/21 06:21:49;;;;;;;5.03;3.20;;;;;;;16.84;100.00;101116.22;5047081;28;20133;-76
2023/07/21 06:24:34;;;;;;;3.75;3.10;;;;;;;17.01;100.00;101116.03;5018530;28;20037;-76
2023/07/21 06:27:20;;;;;;;3.38;2.60;;;;;;;17.27;100.00;101116.09;5019772;28;20170;-76
2023/07/21 06:30:06;;;;;;;3.72;3.00;;;;;;;17.42;100.00;101115.00;5022329;28;20041;-77
2023/07/21 06:32:52;;;;;;;4.20;3.20;;;;;;;17.46;100.00;101113.84;5017127;28;20506;-76
2023/07/21 06:35:38;;;;;;;5.15;2.70;;;;;;;17.50;100.00;101112.63;5020455;28;20488;-76
2023/07/21 06:38:24;;;;;;;3.47;2.22;;;;;;;17.53;100.00;101121.44;5020853;28;20029;-77
2023/07/21 06:41:10;;;;;;;2.80;1.95;;;;;;;17.56;100.00;101115.84;5018076;28;20116;-77
2023/07/21 06:43:55;;;;;;;3.38;2.72;;;;;;;17.60;100.00;101110.16;5035847;28;20049;-77
2023/07/21 06:46:47;;;;;;;3.35;2.20;;;;;;;17.66;100.00;101108.91;5039506;28;20041;-77
2023/07/21 06:49:33;;;;;;;4.43;2.97;;;;;;;17.76;100.00;101101.06;5039843;28;20390;-76
2023/07/21 06:52:18;;;;;;;5.47;2.80;;;;;;;17.89;100.00;101099.22;5039983;28;20035;-77
2023/07/21 06:55:05;;;;;;;4.70;2.47;;;;;;;18.14;100.00;101096.59;5027262;28;20044;-76
2023/07/21 06:57:51;;;;;;;3.45;2.40;;;;;;;18.49;100.00;101092.22;5024734;28;20052;-76
2023/07/21 07:00:37;;;;;;;2.45;1.65;;;;;;;18.68;100.00;101092.53;5014392;28;20045;-77
2023/07/21 07:03:23;;;;;;;2.55;1.55;;;;;;;18.89;100.00;101096.41;5039658;28;20053;-75
2023/07/21 07:06:09;;;;;;;1.80;1.00;;;;;;;18.96;100.00;101089.59;5038734;28;20033;-76
2023/07/21 07:08:55;;;;;;;2.10;1.70;;;;;;;18.95;100.00;101093.25;5038637;28;20073;-75
2023/07/21 07:11:41;;;;;;;1.75;1.65;;;;;;;18.94;100.00;101091.50;5016564;28;20041;-76
2023/07/21 07:14:27;;;;;;;3.03;2.50;;;;;;;18.90;100.00;101101.63;5029435;28;20040;-77
2023/07/21 07:17:13;;;;;;;3.17;2.40;;;;;;;18.86;100.00;101100.16;5038663;28;20040;-77
2023/07/21 07:19:59;;;;;;;3.42;2.30;;;;;;;18.89;100.00;101099.91;5024172;28;20488;-76
2023/07/21 07:22:44;;;;;;;2.22;2.03;;;;;;;18.96;100.00;101089.59;5040445;28;20179;-76
2023/07/21 07:25:30;;;;;;;5.82;2.15;;;;;;;19.22;100.00;101089.38;5040477;28;20033;-76
2023/07/21 07:28:17;;;;;;;3.47;2.10;;;;;;;19.41;100.00;101092.34;5041842;28;20400;-76
2023/07/21 07:31:04;;;;;;;2.97;2.00;;;;;;;19.51;100.00;101094.31;5038290;28;20407;-76
2023/07/21 07:33:49;;;;;;;3.78;2.42;;;;;;;19.57;100.00;101088.44;5039019;28;20032;-77
2023/07/21 07:36:35;;;;;;;3.65;2.67;;;;;;;19.61;98.73;101084.53;5024427;28;20101;-77
2023/07/21 07:39:21;;;;;;;4.60;2.70;;;;;;;19.62;98.47;101086.22;5024014;28;20037;-76
2023/07/21 07:42:07;;;;;;;4.63;2.10;;;;;;;19.85;99.44;101086.22;5041219;28;20033;-76
2023/07/21 07:44:58;;;;;;;4.28;2.08;;;;;;;20.06;97.97;101090.84;5038984;28;20041;-76
2023/07/21 07:47:44;;;;;;;2.58;2.20;;;;;;;20.19;95.55;101083.47;5038061;28;20037;-76
2023/07/21 07:50:30;;;;;;;2.60;1.58;;;;;;;20.26;94.38;101077.59;5024786;28;20037;-76
2023/07/21 07:53:16;;;;;;;1.40;1.10;;;;;;;20.40;92.89;101084.50;5040061;28;20033;-77
2023/07/21 07:56:03;;;;;;;1.23;1.13;;;;;;;20.59;92.38;101067.69;5038594;28;20132;-77
2023/07/21 07:58:49;;;;;;;1.95;1.27;;;;;;;20.75;90.32;101072.59;5023053;28;20055;-77
2023/07/21 08:01:35;;;;;;;2.45;1.10;;;;;;;20.83;89.04;101071.94;5038615;28;20048;-77
2023/07/21 08:04:21;;;;;;;1.80;1.48;;;;;;;20.88;88.21;101067.88;5038277;28;20040;-77
2023/07/21 08:07:07;;;;;;;1.58;1.48;;;;;;;21.03;87.54;101065.72;5038668;28;20082;-77
2023/07/21 08:09:52;;;;;;;3.17;1.67;;;;;;;21.21;87.08;101073.19;5039186;28;20056;-77
2023/07/21 08:12:38;;;;;;;2.75;1.90;;;;;;;21.26;85.98;101070.09;5037870;28;20037;-77
2023/07/21 08:15:24;;;;;;;2.13;1.70;;;;;;;21.24;86.51;101077.47;5039396;28;20514;-77
2023/07/21 08:18:12;;;;;;;2.25;1.90;;;;;;;21.44;85.41;101073.84;5037295;28;20037;-77
2023/07/21 08:20:58;;;;;;;2.00;1.80;;;;;;;21.39;84.45;101070.72;5022594;28;20808;-78
2023/07/21 08:23:44;;;;;;;3.13;1.40;;;;;;;21.28;84.21;101068.97;5024761;28;20533;-77
2023/07/21 08:26:30;;;;;;;1.85;1.70;;;;;;;21.13;83.72;101067.63;5039014;28;20047;-77
2023/07/21 08:29:16;;;;;;;2.25;1.67;;;;;;;21.00;84.18;101062.44;5037822;28;20153;-78
2023/07/21 08:32:02;;;;;;;4.18;1.55;;;;;;;21.01;84.22;101072.22;5038304;28;20067;-77
2023/07/21 08:34:48;;;;;;;2.90;1.95;;;;;;;20.98;84.18;101072.50;5038961;28;20052;-77
2023/07/21 08:37:34;;;;;;;1.88;1.50;;;;;;;21.10;83.98;101075.94;5023640;28;20119;-77
2023/07/21 08:40:22;;;;;;;1.48;1.33;;;;;;;21.12;83.05;101079.34;5023458;28;20124;-77
2023/07/21 08:43:08;;;;;;;2.25;1.30;;;;;;;21.12;82.30;101074.84;5035537;28;20052;-76
2023/07/21 08:45:54;;;;;;;1.30;1.20;;;;;;;21.14;82.01;101072.03;5023073;28;20039;-77
2023/07/21 08:48:40;;;;;;;1.50;1.10;;;;;;;21.26;81.97;101070.94;5041892;28;20064;-77
2023/07/21 08:51:26;;;;;;;2.33;1.23;;;;;;;21.36;80.45;101078.22;5042916;28;20045;-77
2023/07/21 08:54:12;;;;;;;1.60;1.50;;;;;;;21.22;79.37;101074.03;5025121;28;20045;-77
2023/07/21 08:56:58;;;;;;;3.08;1.45;;;;;;;21.08;80.39;101075.25;5026274;28;20044;-77
2023/07/21 08:59:44;;;;;;;1.83;1.52;;;;;;;20.98;80.11;101067.09;5041648;28;20061;-78
2023/07/21 09:02:46;;;;;;;2.75;2.20;;;;;;;20.79;79.23;101073.16;5041936;28;20049;-78
2023/07/21 09:05:31;;;;;;;2.63;2.25;;;;;;;20.55;80.89;101072.47;5041284;28;20048;-76
2023/07/21 09:08:19;;;;;;;2.17;1.70;;;;;;;20.47;82.02;101075.78;5024224;28;20080;-75
2023/07/21 09:11:05;;;;;;;1.60;1.50;;;;;;;20.43;82.25;101068.94;5024359;28;20850;-76
2023/07/21 09:13:56;;;;;;;2.55;1.40;;;;;;;20.37;82.00;101068.63;5014394;28;20678;-76
2023/07/21 09:16:45;;;;;;;1.30;1.20;;;;;;;20.27;81.03;101068.53;5027367;28;21059;-76
2023/07/21 09:19:39;;;;;;;1.90;1.30;;;;;;;20.15;79.97;101070.44;5040292;28;20089;-76
2023/07/21 09:22:25;;;;;;;2.15;1.33;;;;;;;20.06;80.99;101072.03;5042111;28;20074;-76
2023/07/21 09:25:19;;;;;;;1.92;1.08;;;;;;;19.99;80.14;101066.28;5026171;28;20094;-76
2023/07/21 09:28:05;;;;;;;1.77;1.40;;;;;;;20.00;81.07;101076.06;5026897;28;20141;-76
2023/07/21 09:30:52;;;;;;;1.58;1.48;;;;;;;20.03;80.97;101083.03;5024489;28;20053;-76
2023/07/21 09:33:39;;;;;;;1.20;1.10;;;;;;;19.93;80.50;101075.69;5014131;28;20569;-75
2023/07/21 09:36:25;;;;;;;1.42;1.30;;;;;;;19.89;80.65;101079.59;5024991;28;20040;-76
2023/07/21 09:39:14;;;;;;;3.38;1.33;;;;;;;19.81;80.56;101074.00;5040124;28;20033;-76
2023/07/21 09:42:01;;;;;;;1.30;1.20;;;;;;;19.83;80.58;101077.41;5025364;28;20072;-75
2023/07/21 09:44:47;;;;;;;1.80;1.40;;;;;;;19.89;80.39;101068.84;5054050;28;20036;-76
2023/07/21 09:47:33;;;;;;;3.65;1.40;;;;;;;20.00;81.14;101061.78;5038989;28;20033;-76
2023/07/21 09:50:20;;;;;;;2.08;1.30;;;;;;;20.11;81.79;101064.44;5040639;28;20036;-76
2023/07/21 09:53:07;;;;;;;1.70;1.45;;;;;;;20.17;81.11;101066.63;5024335;28;20081;-76
2023/07/21 09:55:54;;;;;;;1.88;1.45;;;;;;;20.30;81.06;101068.28;5026062;28;20060;-76
2023/07/21 09:59:01;;;;;;;2.15;1.60;;;;;;;20.50;81.40;101058.56;5053313;28;20037;-76
2023/07/21 10:01:48;;;;;;;1.48;1.30;;;;;;;20.71;80.93;101055.00;5024885;28;20419;-77
2023/07/21 10:04:37;;;;;;;1.52;1.42;;;;;;;20.82;80.24;101052.28;5026456;28;20104;-75
2023/07/21 10:07:23;;;;;;;1.85;1.33;;;;;;;20.85;79.96;101059.22;5037614;28;20041;-76
2023/07/21 10:10:10;;;;;;;1.67;1.27;;;;;;;20.81;77.48;101047.84;5041814;28;20984;-76
2023/07/21 10:12:56;;;;;;;1.58;1.30;;;;;;;20.89;78.61;101050.78;5028028;28;20242;-76
2023/07/21 10:15:46;;;;;;;1.27;1.10;;;;;;;20.95;77.29;101052.09;5041616;28;20036;-76
2023/07/21 10:18:32;;;;;;;2.30;1.23;;;;;;;21.06;77.91;101055.66;5015518;28;20131;-76
2023/07/21 10:21:18;;;;;;;1.38;1.10;;;;;;;21.22;77.04;101058.75;5027359;28;20067;-76
2023/07/21 10:24:03;;;;;;;1.42;1.10;;;;;;;21.31;75.55;101054.38;5004793;28;20057;-75
2023/07/21 10:26:56;;;;;;;1.25;1.15;;;;;;;21.39;74.71;101053.69;5025178;28;20116;-76
2023/07/21 10:29:42;;;;;;;1.98;1.10;;;;;;;21.44;74.65;101052.31;5041663;28;20145;-76
2023/07/21 10:32:28;;;;;;;1.25;1.10;;;;;;;21.43;73.93;101049.75;5027958;28;20131;-76
2023/07/21 10:35:36;;;;;;;1.48;1.38;;;;;;;21.46;71.14;101049.47;5038750;28;20043;-76
2023/07/21 10:38:24;;;;;;;1.60;1.20;;;;;;;21.38;73.72;101049.31;5026059;28;20394;-77
2023/07/21 10:41:09;;;;;;;1.65;1.45;;;;;;;21.16;73.78;101056.59;5039162;28;20083;-77
2023/07/21 10:43:55;;;;;;;1.48;1.35;;;;;;;20.96;73.86;101050.25;5038344;28;20196;-76
2023/07/21 10:46:43;;;;;;;2.35;1.63;;;;;;;20.78;73.94;101053.50;5038939;28;20068;-76
2023/07/21 10:49:29;;;;;;;1.88;1.35;;;;;;;20.61;74.05;101049.56;5024121;28;20403;-77
2023/07/21 10:52:15;;;;;;;3.83;1.90;;;;;;;20.47;74.28;101048.03;5023131;28;20475;-76
2023/07/21 10:55:01;;;;;;;2.35;1.67;;;;;;;20.36;74.82;101051.63;5026096;28;20044;-76
2023/07/21 10:57:46;;;;;;;2.38;1.77;;;;;;;20.40;75.14;101054.91;5011471;28;20487;-76
2023/07/21 11:00:49;;;;;;;2.25;1.75;;;;;;;20.43;74.17;101050.13;5039096;28;20041;-76
2023/07/21 11:03:35;;;;;;;2.60;2.08;;;;;;;20.48;75.37;101047.06;5039499;28;20132;-76
2023/07/21 11:06:22;;;;;;;3.85;2.00;;;;;;;20.48;75.86;101047.91;5024778;28;20025;-76
2023/07/21 11:09:11;;;;;;;3.05;2.03;;;;;;;20.54;76.22;101045.69;5039753;28;20381;-76
2023/07/21 11:11:57;;;;;;;2.83;2.05;;;;;;;20.63;75.92;101044.91;5024507;28;20037;-76
2023/07/21 11:14:44;;;;;;;2.15;1.80;;;;;;;20.84;76.14;101036.00;5024083;28;20037;-76
2023/07/21 11:17:32;;;;;;;2.63;1.90;;;;;;;21.06;74.42;101029.63;5024930;28;20083;-76
2023/07/21 11:20:18;;;;;;;4.80;2.30;;;;;;;21.08;73.14;101027.63;5039829;28;21019;-76
2023/07/21 11:23:04;;;;;;;3.75;2.40;;;;;;;20.92;72.16;101029.97;5042108;28;20045;-76
2023/07/21 11:25:58;;;;;;;3.17;1.83;;;;;;;20.74;71.96;101030.53;5039033;28;20074;-76
2023/07/21 11:28:44;;;;;;;2.83;2.20;;;;;;;20.71;73.22;101028.13;5038360;28;20507;-76
2023/07/21 11:31:35;;;;;;;2.85;1.70;;;;;;;20.70;71.27;101032.63;5039341;28;20048;-76
2023/07/21 11:34:28;;;;;;;3.03;1.63;;;;;;;20.76;69.96;101032.09;5038091;28;20044;-76
2023/07/21 11:37:15;;;;;;;3.25;1.55;;;;;;;20.72;70.91;101036.06;5039842;28;20068;-77
2023/07/21 11:40:05;;;;;;;3.83;2.08;;;;;;;20.60;70.39;101027.19;5039305;28;20047;-76
2023/07/21 11:42:52;;;;;;;4.60;2.60;;;;;;;20.38;71.64;101052.38;5023986;28;20494;-77
2023/07/21 11:45:40;;;;;;;5.60;3.00;;;;;;;19.74;76.91;101059.38;5028927;28;20041;-77
2023/07/21 11:48:25;;;;;;;7.45;3.53;;;;;;;18.73;83.34;101068.06;5038277;28;20094;-77
2023/07/21 11:51:11;;;;;;;6.38;3.33;;;;;;;17.89;92.03;101079.59;5025440;28;20068;-79
2023/07/21 11:53:58;;;;;;;3.30;2.70;;;;;;;17.16;91.33;101080.22;5025146;28;20403;-78
2023/07/21 11:56:44;;;;;;;3.83;2.10;;;;;;;16.40;93.76;101096.03;5023562;28;20037;-79
2023/07/21 11:59:30;;;;;;;2.67;1.58;;;;;;;15.84;95.52;101099.56;5039075;28;20408;-79
2023/07/21 12:02:18;;;;;;;2.47;2.00;;;;;;;15.45;99.55;101105.50;5038795;28;20037;-79
2023/07/21 12:05:04;;;;;;;2.10;1.90;;;;;;;15.28;100.00;101111.88;5014396;28;20215;-79
2023/07/21 12:07:52;;;;;;;2.55;1.50;;;;;;;15.07;100.00;101109.56;5022554;28;20053;-79
2023/07/21 12:10:38;;;;;;;2.45;1.70;;;;;;;14.91;100.00;101120.28;5037298;28;20052;-79
2023/07/21 12:13:24;;;;;;;2.22;1.60;;;;;;;14.77;100.00;101117.59;5013609;28;20041;-79
2023/07/21 12:16:11;;;;;;;4.10;1.65;;;;;;;14.70;100.00;101114.38;5014203;28;20041;-80
2023/07/21 12:18:57;;;;;;;2.53;1.52;;;;;;;14.68;100.00;101121.63;5024459;28;20120;-79
2023/07/21 12:21:43;;;;;;;2.13;1.60;;;;;;;14.72;100.00;101125.84;5040657;28;20048;-79
2023/07/21 12:24:29;;;;;;;2.30;1.52;;;;;;;14.73;100.00;101124.88;5042889;28;20056;-79
2023/07/21 12:27:15;;;;;;;1.73;1.42;;;;;;;14.77;100.00;101125.59;5043841;28;20040;-79
2023/07/21 12:30:02;;;;;;;2.20;1.77;;;;;;;14.73;100.00;101118.69;5041388;28;20037;-80
2023/07/21 12:32:48;;;;;;;1.80;1.45;;;;;;;14.60;100.00;101118.56;5041951;28;20033;-80
2023/07/21 12:35:34;;;;;;;2.80;1.83;;;;;;;14.56;100.00;101104.56;5043170;28;20029;-80
2023/07/21 12:38:20;;;;;;;3.28;1.98;;;;;;;14.53;100.00;101108.25;5026954;28;20146;-81
2023/07/21 12:41:06;;;;;;;2.53;1.85;;;;;;;14.47;100.00;101116.59;5040763;28;20071;-82
2023/07/21 12:43:52;;;;;;;3.33;2.00;;;;;;;14.42;100.00;101110.66;5024365;28;20088;-82
2023/07/21 12:46:39;;;;;;;2.75;2.25;;;;;;;14.43;100.00;101107.03;5049510;28;20409;-81
2023/07/21 12:49:25;;;;;;;2.95;2.35;;;;;;;14.46;100.00;101101.56;5019892;28;20112;-83